Terminal Aerodrome Forecast
Issued by NWS Twin Cities, MN

Home | Current Version | Previous Version | Graphics & Text | Print | Product List | Glossary On
Versions: 1 2 3 4 5 6 7 8 9 10 11 12 13 14 15 16 17 18 19 20 21 22 23 24 25 26 27 28
000
FTUS43 KMPX 080538
TAFMSP
TAF
KMSP 080538Z 0806/0912 25008KT P6SM OVC060
      TEMPO 0809/0811 BKN020
     FM081100 28005KT P6SM SCT014 OVC020
     FM081500 28011G17KT P6SM BKN015 OVC020
     FM082300 29017G25KT 2SM -SN SCT010 OVC015
     FM090200 34018G26KT P6SM VCSH OVC025=

USA.gov is the U.S. government's official web portal to all federal, state and local government web resources and services.